Time;durP1;ratioP1;P1;durP2;ratioP2;P2;SDS_P1;SDS_P2;PMS_P1;PMS_P2;Temp;Humidity;BMP_temperature;BMP_pressure;BME280_temperature;BME280_humidity;BME280_pressure;Samples;Min_cycle;Max_cycle;Signal;HPM_P1;HPM_P2
2020/12/20 00:00:13;;;;;;;152.85;88.10;;;11.10;99.90;;;;;;4967196;28;20595;-76
2020/12/20 00:16:11;;;;;;;137.13;82.20;;;11.10;99.90;;;;;;4952390;28;20105;-81
2020/12/20 00:42:46;;;;;;;153.40;84.05;;;11.00;99.90;;;;;;4860172;29;20072;-80
2020/12/20 01:03:17;;;;;;;139.93;82.10;;;10.90;99.90;;;;;;4681305;30;20467;-81
2020/12/20 01:09:36;;;;;;;139.27;80.18;;;10.80;99.90;;;;;;4773720;29;20046;-79
2020/12/20 01:20:14;;;;;;;141.80;79.60;;;10.70;99.90;;;;;;4788345;29;20102;-81
2020/12/20 01:22:38;;;;;;;136.85;78.95;;;10.70;99.90;;;;;;4829532;29;20042;-79
2020/12/20 01:25:53;;;;;;;148.30;83.65;;;10.60;99.90;;;;;;4824928;29;20580;-78
2020/12/20 01:28:58;;;;;;;146.10;80.47;;;10.60;99.90;;;;;;4816979;29;20034;-80
2020/12/20 01:32:07;;;;;;;143.85;78.22;;;10.60;99.90;;;;;;4835459;29;20086;-79
2020/12/20 01:41:59;;;;;;;149.57;82.38;;;10.50;99.90;;;;;;4953679;28;20619;-81
2020/12/20 01:49:07;;;;;;;150.90;81.72;;;10.50;99.90;;;;;;4953324;28;20042;-81
2020/12/20 02:06:37;;;;;;;142.70;78.65;;;10.40;99.90;;;;;;4839768;29;20514;-81
2020/12/20 02:09:53;;;;;;;150.35;82.03;;;10.50;99.90;;;;;;4830859;29;20568;-78
2020/12/20 02:12:45;;;;;;;141.75;78.97;;;10.50;99.90;;;;;;4840262;29;20454;-81
2020/12/20 02:16:18;;;;;;;157.63;83.50;;;10.60;99.90;;;;;;4875880;29;20041;-76
2020/12/20 02:19:16;;;;;;;159.63;87.70;;;10.60;99.90;;;;;;4859193;29;20050;-80
2020/12/20 02:22:36;;;;;;;;;;;;;;;;;;;;;
2020/12/20 02:26:16;;;;;;;160.18;86.80;;;10.60;99.90;;;;;;4838274;29;20458;-76
2020/12/20 02:43:25;;;;;;;139.85;76.72;;;10.60;99.90;;;;;;4854702;29;20078;-81
2020/12/20 02:49:47;;;;;;;139.30;76.53;;;10.60;99.90;;;;;;4753125;30;20535;-80
2020/12/20 03:17:09;;;;;;;159.30;81.65;;;10.70;99.90;;;;;;4839491;29;20077;-78
2020/12/20 03:20:07;;;;;;;146.27;79.70;;;10.70;99.90;;;;;;4865583;29;20053;-79
2020/12/20 03:23:00;;;;;;;148.32;80.53;;;10.60;99.90;;;;;;4875067;29;20184;-81
2020/12/20 03:26:15;;;;;;;145.80;79.20;;;10.60;99.90;;;;;;4882641;29;20056;-81
2020/12/20 03:40:09;;;;;;;140.52;77.95;;;10.60;99.90;;;;;;4875522;29;20423;-77
2020/12/20 03:54:03;;;;;;;150.60;82.65;;;10.60;99.90;;;;;;4856643;29;20037;-80
2020/12/20 04:27:47;;;;;;;135.68;78.45;;;10.60;99.90;;;;;;4876521;29;20781;-76
2020/12/20 04:30:45;;;;;;;136.13;75.90;;;10.50;99.90;;;;;;4884041;29;20392;-78
2020/12/20 04:40:24;;;;;;;;;;;;;;;;;;;;;
2020/12/20 04:46:23;;;;;;;137.05;75.90;;;10.70;99.90;;;;;;4925104;29;20453;-80
2020/12/20 04:49:15;;;;;;;141.77;76.15;;;10.70;99.90;;;;;;4917468;29;20076;-81
2020/12/20 04:52:30;;;;;;;135.75;76.53;;;10.70;99.90;;;;;;4934409;29;20015;-80
2020/12/20 04:55:29;;;;;;;135.25;75.47;;;10.70;99.90;;;;;;4932655;29;20107;-82
2020/12/20 04:58:43;;;;;;;161.15;88.60;;;10.70;99.90;;;;;;4935238;29;20046;-80
2020/12/20 05:08:19;;;;;;;137.93;78.82;;;10.70;99.90;;;;;;4822650;29;20041;-79
2020/12/20 05:11:00;;;;;;;;;;;10.70;99.90;;;;;;4786639;29;20112;-80
2020/12/20 05:14:19;;;;;;;;;;;;;;;;;;;;;
2020/12/20 05:27:35;;;;;;;149.05;82.75;;;10.80;99.90;;;;;;4841185;29;20045;-77
2020/12/20 05:37:39;;;;;;;146.60;81.00;;;10.80;99.90;;;;;;4822783;29;20086;-77
2020/12/20 05:44:01;;;;;;;134.32;76.70;;;10.80;99.90;;;;;;4802775;29;20098;-78
2020/12/20 05:50:29;;;;;;;147.10;74.20;;;10.80;99.90;;;;;;4877177;29;20047;-81
2020/12/20 05:53:56;;;;;;;136.63;75.65;;;10.90;99.90;;;;;;4873391;29;20121;-81
2020/12/20 06:00:54;;;;;;;;;;;;;;;;;;;;;
2020/12/20 06:10:52;;;;;;;;;;;;;;;;;;;;;
2020/12/20 06:17:48;;;;;;;131.95;74.85;;;10.90;99.90;;;;;;4838236;29;20034;-80
2020/12/20 06:21:13;;;;;;;;;;;;;;;;;;;;;
2020/12/20 06:24:40;;;;;;;;;;;;;;;;;;;;;
2020/12/20 06:37:38;;;;;;;131.63;71.73;;;10.80;99.90;;;;;;4845764;29;20044;-78
2020/12/20 06:51:07;;;;;;;;;;;;;;;;;;;;;
2020/12/20 07:01:24;;;;;;;132.93;75.40;;;10.70;99.90;;;;;;4956868;28;20077;-80
2020/12/20 07:07:24;;;;;;;140.10;73.93;;;10.80;99.90;;;;;;4971424;28;20065;-82
2020/12/20 07:09:50;;;;;;;141.70;76.57;;;10.80;99.90;;;;;;4970310;28;20045;-83
2020/12/20 07:13:00;;;;;;;148.82;79.57;;;10.80;99.90;;;;;;4971138;28;20406;-77
2020/12/20 07:26:56;;;;;;;147.82;76.65;;;10.80;99.90;;;;;;4958137;28;20057;-81
2020/12/20 07:30:15;;;;;;;138.95;73.82;;;10.80;99.90;;;;;;4939620;29;20035;-81
2020/12/20 07:36:37;;;;;;;;;;;;;;;;;;;;;
2020/12/20 07:46:21;;;;;;;138.95;77.40;;;10.90;99.90;;;;;;4902815;29;20051;-80
2020/12/20 07:52:23;;;;;;;148.75;79.15;;;10.90;99.90;;;;;;4893914;29;20036;-80
2020/12/20 08:02:21;;;;;;;161.77;87.28;;;10.80;99.90;;;;;;4912318;29;20051;-80
2020/12/20 08:05:52;;;;;;;;;;;;;;;;;;;;;
2020/12/20 08:22:28;;;;;;;162.93;91.63;;;10.80;99.90;;;;;;4837880;29;20038;-80
2020/12/20 08:29:19;;;;;;;;;;;;;;;;;;;;;
2020/12/20 08:32:32;;;;;;;179.45;94.72;;;10.70;99.90;;;;;;4817691;29;20070;-81
2020/12/20 08:42:07;;;;;;;161.05;91.15;;;10.60;99.90;;;;;;4922206;28;20038;-78
2020/12/20 08:44:54;;;;;;;158.32;86.85;;;10.50;99.90;;;;;;4947539;28;20067;-79
2020/12/20 08:51:21;;;;;;;155.25;84.80;;;10.60;99.90;;;;;;4993916;28;20088;-77
2020/12/20 08:53:46;;;;;;;162.82;88.47;;;10.60;99.90;;;;;;5009188;28;20355;-77
2020/12/20 08:56:12;;;;;;;150.00;85.57;;;10.60;99.90;;;;;;5002567;28;20022;-78
2020/12/20 08:58:38;;;;;;;165.02;92.45;;;10.60;99.90;;;;;;5010024;28;20477;-78
2020/12/20 09:01:03;;;;;;;163.90;89.20;;;10.70;99.90;;;;;;5001787;28;20038;-78
2020/12/20 09:03:29;;;;;;;160.82;89.53;;;10.70;99.90;;;;;;5001979;28;20026;-78
2020/12/20 09:05:55;;;;;;;162.10;90.88;;;10.70;99.90;;;;;;5009257;28;20034;-75
2020/12/20 09:08:21;;;;;;;163.15;90.75;;;10.70;99.90;;;;;;5007523;28;20463;-75
2020/12/20 09:10:46;;;;;;;171.95;93.63;;;10.70;99.90;;;;;;5004870;28;20022;-77
2020/12/20 09:13:12;;;;;;;167.35;93.05;;;10.70;99.90;;;;;;5010027;28;20128;-76
2020/12/20 09:15:39;;;;;;;166.85;95.25;;;10.70;99.90;;;;;;5008812;28;20101;-76
2020/12/20 09:18:43;;;;;;;163.40;90.55;;;10.70;99.90;;;;;;5009307;28;20014;-81
2020/12/20 09:25:03;;;;;;;145.95;79.82;;;10.70;99.90;;;;;;4986463;28;20046;-80
2020/12/20 09:41:50;;;;;;;142.23;75.68;;;10.80;99.90;;;;;;4971431;28;20034;-81
2020/12/20 09:55:29;;;;;;;210.73;129.02;;;10.90;99.90;;;;;;4874654;29;20080;-79
2020/12/20 10:01:17;;;;;;;129.68;76.10;;;10.90;99.90;;;;;;4892715;29;20048;-81
2020/12/20 10:18:01;;;;;;;130.68;73.35;;;11.10;99.90;;;;;;4881688;29;20040;-81
2020/12/20 10:24:51;;;;;;;131.50;73.68;;;11.20;99.90;;;;;;4857923;29;20117;-81
2020/12/20 10:56:58;;;;;;;;;;;;;;;;;;;;;
2020/12/20 11:04:14;;;;;;;143.82;85.68;;;11.50;99.90;;;;;;4732816;30;20048;-80
2020/12/20 11:23:47;;;;;;;117.10;67.38;;;11.40;99.90;;;;;;4676257;30;20107;-81
2020/12/20 11:29:39;;;;;;;114.28;66.88;;;11.40;99.90;;;;;;4801953;29;20046;-77
2020/12/20 11:32:54;;;;;;;111.60;64.15;;;11.40;99.90;;;;;;4881218;29;20037;-78
2020/12/20 11:39:10;;;;;;;104.22;62.28;;;11.40;99.90;;;;;;4903246;29;20098;-83
2020/12/20 11:41:36;;;;;;;91.82;53.67;;;11.50;99.90;;;;;;4912912;29;20039;-76
2020/12/20 11:44:03;;;;;;;98.25;58.92;;;11.50;99.90;;;;;;5008532;28;20080;-75
2020/12/20 11:46:29;;;;;;;95.00;57.13;;;11.50;99.90;;;;;;5016753;28;20068;-80
2020/12/20 11:49:27;;;;;;;97.47;58.45;;;11.40;99.90;;;;;;5014025;28;20033;-75
2020/12/20 11:51:55;;;;;;;93.20;54.63;;;11.50;99.90;;;;;;4984194;28;20050;-77
2020/12/20 11:54:21;;;;;;;87.72;53.22;;;11.50;99.90;;;;;;5013086;28;20018;-86
2020/12/20 11:56:47;;;;;;;103.10;66.43;;;11.50;99.90;;;;;;5006368;28;20497;-86
2020/12/20 11:59:13;;;;;;;98.97;59.60;;;11.60;99.90;;;;;;5002561;28;20018;-78
2020/12/20 12:01:42;;;;;;;95.13;54.78;;;11.60;99.90;;;;;;5007300;28;20026;-80
2020/12/20 12:04:09;;;;;;;117.10;68.53;;;11.60;99.90;;;;;;5002497;28;20077;-78
2020/12/20 12:06:59;;;;;;;94.65;58.33;;;11.60;99.90;;;;;;5011257;28;20410;-77
2020/12/20 12:09:24;;;;;;;96.55;58.90;;;11.60;99.90;;;;;;5009835;28;20041;-80
2020/12/20 12:11:53;;;;;;;91.43;54.70;;;11.60;99.90;;;;;;5014342;28;20026;-81
2020/12/20 12:14:18;;;;;;;92.75;55.15;;;11.60;99.90;;;;;;5007444;28;20105;-78
2020/12/20 12:16:44;;;;;;;91.50;55.95;;;11.60;99.90;;;;;;5009406;28;20096;-77
2020/12/20 12:19:10;;;;;;;93.20;55.30;;;11.70;99.90;;;;;;4999788;28;20024;-76
2020/12/20 12:21:36;;;;;;;88.85;55.80;;;11.70;99.90;;;;;;5010362;28;20548;-78
2020/12/20 12:24:06;;;;;;;94.65;56.60;;;11.70;99.90;;;;;;5006617;28;20106;-76
2020/12/20 12:26:32;;;;;;;92.03;57.65;;;11.70;99.90;;;;;;5018436;28;20130;-77
2020/12/20 12:28:58;;;;;;;109.80;67.32;;;11.70;99.90;;;;;;5038091;28;20033;-76
2020/12/20 12:31:24;;;;;;;119.20;73.63;;;11.80;99.90;;;;;;5030377;28;20029;-80
2020/12/20 12:33:50;;;;;;;109.50;66.80;;;11.80;99.90;;;;;;5038878;28;20429;-83
2020/12/20 12:36:27;;;;;;;109.82;67.95;;;11.90;99.90;;;;;;5033984;28;20021;-81
2020/12/20 12:38:55;;;;;;;113.93;68.00;;;12.00;99.90;;;;;;5035193;28;20021;-79
2020/12/20 12:41:29;;;;;;;121.18;71.60;;;12.00;99.90;;;;;;5034133;28;20033;-81
2020/12/20 12:44:01;;;;;;;120.72;72.25;;;12.00;99.90;;;;;;5033063;28;20040;-80
2020/12/20 12:46:27;;;;;;;113.05;70.95;;;12.10;99.90;;;;;;5029863;28;20067;-78
2020/12/20 12:48:56;;;;;;;117.07;72.18;;;12.10;99.90;;;;;;5025159;28;20022;-77
2020/12/20 12:51:26;;;;;;;119.47;74.63;;;12.10;99.90;;;;;;5018752;28;20029;-80
2020/12/20 12:53:55;;;;;;;111.85;70.13;;;12.20;99.90;;;;;;5034165;28;20026;-82
2020/12/20 12:56:22;;;;;;;105.57;66.10;;;12.20;99.90;;;;;;5034521;28;20033;-81
2020/12/20 12:59:03;;;;;;;104.45;65.45;;;12.30;99.90;;;;;;5027264;28;20029;-80
2020/12/20 13:02:13;;;;;;;109.38;67.13;;;12.30;99.90;;;;;;5016338;28;20041;-79
2020/12/20 13:12:33;;;;;;;106.78;68.90;;;12.60;99.90;;;;;;4816681;29;20171;-77
2020/12/20 13:15:36;;;;;;;111.80;69.35;;;12.60;99.90;;;;;;4855816;29;20082;-79
2020/12/20 13:18:03;;;;;;;107.97;67.00;;;12.60;99.90;;;;;;4857595;29;20498;-80
2020/12/20 13:20:29;;;;;;;112.40;69.95;;;12.70;99.90;;;;;;4876672;29;20051;-81
2020/12/20 13:23:02;;;;;;;111.25;70.13;;;12.70;99.90;;;;;;4922029;29;20051;-77
2020/12/20 13:25:39;;;;;;;120.07;70.93;;;12.70;99.90;;;;;;4986869;28;20643;-77
2020/12/20 13:28:14;;;;;;;109.60;68.35;;;12.70;99.90;;;;;;5031400;28;20040;-79
2020/12/20 13:30:39;;;;;;;108.85;67.78;;;12.70;99.90;;;;;;5013316;28;20025;-76
2020/12/20 13:33:05;;;;;;;122.97;68.18;;;12.70;99.90;;;;;;5032159;28;20429;-76
2020/12/20 13:35:31;;;;;;;128.80;76.97;;;12.70;99.90;;;;;;5036091;28;20032;-78
2020/12/20 13:38:09;;;;;;;128.20;82.50;;;12.70;99.90;;;;;;5034344;28;20097;-78
2020/12/20 13:40:37;;;;;;;145.98;90.68;;;12.60;99.90;;;;;;5022210;28;20025;-78
2020/12/20 13:43:03;;;;;;;271.25;153.32;;;12.60;99.90;;;;;;5033393;28;20033;-78
2020/12/20 13:45:39;;;;;;;288.55;157.65;;;12.60;99.90;;;;;;5037730;28;20059;-78
2020/12/20 13:49:08;;;;;;;313.17;176.02;;;12.60;99.90;;;;;;5015386;28;20030;-78
2020/12/20 13:52:03;;;;;;;195.75;111.97;;;12.60;99.90;;;;;;4907364;29;20096;-78
2020/12/20 13:55:11;;;;;;;152.50;91.68;;;12.60;99.90;;;;;;4896516;29;20028;-78
2020/12/20 13:57:40;;;;;;;133.63;76.82;;;12.60;99.90;;;;;;4950410;29;20039;-78
2020/12/20 14:00:06;;;;;;;127.50;74.15;;;12.60;99.90;;;;;;4951302;29;20065;-78
2020/12/20 14:02:32;;;;;;;120.30;72.28;;;12.60;99.90;;;;;;5005096;28;20072;-78
2020/12/20 14:05:17;;;;;;;134.25;80.70;;;12.60;99.90;;;;;;5033644;28;20029;-78
2020/12/20 14:07:45;;;;;;;130.25;79.22;;;12.60;99.90;;;;;;5032417;28;20025;-77
2020/12/20 14:10:11;;;;;;;123.40;73.30;;;12.60;99.90;;;;;;5031289;28;20013;-76
2020/12/20 14:12:44;;;;;;;117.45;71.57;;;12.60;99.90;;;;;;5031853;28;20404;-79
2020/12/20 14:15:16;;;;;;;116.78;71.47;;;12.60;99.90;;;;;;5029193;28;20480;-79
2020/12/20 14:17:50;;;;;;;123.60;71.97;;;12.60;99.90;;;;;;5032102;28;20021;-77
2020/12/20 14:20:20;;;;;;;124.90;73.45;;;12.60;99.90;;;;;;5029716;28;20021;-80
2020/12/20 14:22:48;;;;;;;137.85;84.80;;;12.60;99.90;;;;;;5031634;28;20440;-76
2020/12/20 14:28:08;;;;;;;128.55;75.05;;;12.60;99.90;;;;;;5008824;28;20183;-80
2020/12/20 14:30:34;;;;;;;127.65;78.68;;;12.60;99.90;;;;;;5028847;28;20034;-78
2020/12/20 14:33:00;;;;;;;129.95;76.15;;;12.60;99.90;;;;;;5035034;28;20546;-78
2020/12/20 14:35:26;;;;;;;130.73;77.18;;;12.60;99.90;;;;;;5015354;28;20029;-80
2020/12/20 14:37:52;;;;;;;127.93;77.43;;;12.60;99.90;;;;;;5030956;28;20025;-78
2020/12/20 14:40:41;;;;;;;149.20;83.03;;;12.60;99.90;;;;;;5031027;28;20087;-79
2020/12/20 14:43:42;;;;;;;133.05;77.43;;;12.60;99.90;;;;;;5028573;28;20486;-76
2020/12/20 14:46:11;;;;;;;147.07;81.22;;;12.60;99.90;;;;;;5031142;28;20062;-80
2020/12/20 14:48:41;;;;;;;137.00;81.45;;;12.60;99.90;;;;;;5030148;28;20200;-79
2020/12/20 14:51:11;;;;;;;136.70;81.88;;;12.60;99.90;;;;;;5030938;28;20024;-79
2020/12/20 14:53:37;;;;;;;149.50;85.50;;;12.50;99.90;;;;;;5030975;28;20021;-79
2020/12/20 14:56:03;;;;;;;125.30;77.40;;;12.50;99.90;;;;;;5031189;28;20032;-79
2020/12/20 14:58:34;;;;;;;132.90;79.88;;;12.50;99.90;;;;;;5030576;28;20677;-79
2020/12/20 15:01:43;;;;;;;143.00;78.65;;;12.40;99.90;;;;;;5031853;28;20029;-78
2020/12/20 15:04:07;;;;;;;135.52;76.55;;;12.40;99.90;;;;;;5020631;28;20044;-78
2020/12/20 15:07:05;;;;;;;135.45;79.75;;;12.40;99.90;;;;;;5032120;28;20041;-76
2020/12/20 15:09:57;;;;;;;134.10;77.80;;;12.30;99.90;;;;;;5020133;28;20029;-78
2020/12/20 15:12:54;;;;;;;139.77;77.05;;;12.30;99.90;;;;;;5030069;28;20025;-79
2020/12/20 15:16:07;;;;;;;153.68;89.93;;;12.30;99.90;;;;;;5031009;28;20092;-77
2020/12/20 15:18:32;;;;;;;143.77;83.18;;;12.30;99.90;;;;;;4985906;28;20034;-80
2020/12/20 15:20:58;;;;;;;147.60;82.63;;;12.30;99.90;;;;;;5031027;28;20040;-79
2020/12/20 15:23:24;;;;;;;146.27;82.40;;;12.30;99.90;;;;;;5030737;28;20022;-78
2020/12/20 15:25:49;;;;;;;150.63;85.15;;;12.20;99.90;;;;;;5035334;28;20051;-80
2020/12/20 15:31:15;;;;;;;145.13;85.75;;;12.20;99.90;;;;;;4999424;28;20527;-77
2020/12/20 15:33:49;;;;;;;163.05;90.30;;;12.20;99.90;;;;;;5039710;28;20111;-76
2020/12/20 15:36:18;;;;;;;140.52;82.30;;;12.20;99.90;;;;;;5035595;28;20021;-77
2020/12/20 15:38:48;;;;;;;150.45;82.57;;;12.20;99.90;;;;;;5036060;28;20074;-83
2020/12/20 15:41:54;;;;;;;149.20;88.55;;;12.30;99.90;;;;;;5029212;28;20478;-78
2020/12/20 15:47:46;;;;;;;156.88;92.18;;;12.40;99.90;;;;;;5032521;28;20078;-84
2020/12/20 15:50:12;;;;;;;155.18;88.57;;;12.40;99.90;;;;;;5026375;28;20053;-79
2020/12/20 15:52:43;;;;;;;154.68;86.63;;;12.30;99.90;;;;;;5032839;28;20508;-80
2020/12/20 15:55:34;;;;;;;158.75;91.50;;;12.40;99.90;;;;;;5029540;28;20122;-79
2020/12/20 16:01:17;;;;;;;153.27;86.55;;;12.30;99.90;;;;;;5009871;28;20065;-78
2020/12/20 16:03:44;;;;;;;142.48;81.68;;;12.30;99.90;;;;;;5033033;28;20032;-76
2020/12/20 16:06:41;;;;;;;151.10;80.93;;;12.30;99.90;;;;;;5030001;28;20022;-78
2020/12/20 16:09:34;;;;;;;148.25;79.57;;;12.30;99.90;;;;;;5010651;28;20172;-78
2020/12/20 16:12:07;;;;;;;130.27;74.97;;;12.30;99.90;;;;;;5046839;28;20029;-78
2020/12/20 16:18:36;;;;;;;131.53;75.60;;;12.20;99.90;;;;;;5032869;28;20088;-77
2020/12/20 16:22:10;;;;;;;;;;;;;;;;;;;;;
2020/12/20 16:24:30;;;;;;;156.30;88.38;;;12.20;99.90;;;;;;5032981;28;20053;-77
2020/12/20 16:27:30;;;;;;;185.33;100.43;;;12.20;99.90;;;;;;5035143;28;20049;-77
2020/12/20 16:30:06;;;;;;;177.75;96.72;;;12.20;99.90;;;;;;5033038;28;20276;-77
2020/12/20 16:32:55;;;;;;;161.27;92.18;;;12.20;99.90;;;;;;5033958;28;20017;-77
2020/12/20 16:35:40;;;;;;;156.48;85.68;;;12.20;99.90;;;;;;5032814;28;20036;-78
2020/12/20 16:38:24;;;;;;;148.93;85.10;;;12.10;99.90;;;;;;5040866;28;20028;-75
2020/12/20 16:41:14;;;;;;;162.32;87.40;;;12.10;99.90;;;;;;5030731;28;20021;-77
2020/12/20 16:44:04;;;;;;;159.82;89.45;;;12.10;99.90;;;;;;5027359;28;20523;-76
2020/12/20 16:46:48;;;;;;;170.55;91.15;;;12.10;99.90;;;;;;5033262;28;20026;-77
2020/12/20 16:53:14;;;;;;;155.43;87.90;;;12.10;99.90;;;;;;5034124;28;20154;-77
2020/12/20 16:59:52;;;;;;;123.90;74.18;;;12.10;99.90;;;;;;5022985;28;20036;-76
2020/12/20 17:02:57;;;;;;;132.63;78.93;;;12.10;99.90;;;;;;5026970;28;20036;-77
2020/12/20 17:40:19;;;;;;;168.05;97.18;;;12.00;99.90;;;;;;4891727;29;20549;-79
2020/12/20 17:43:35;;;;;;;141.50;78.75;;;12.00;99.90;;;;;;4907120;28;20038;-78
2020/12/20 17:46:49;;;;;;;;;;;;;;;;;;;;;
2020/12/20 17:49:54;;;;;;;137.55;79.57;;;11.90;99.90;;;;;;5020761;28;20477;-79
2020/12/20 17:56:31;;;;;;;125.78;74.45;;;11.90;99.90;;;;;;4963387;28;20770;-78
2020/12/20 17:59:34;;;;;;;127.30;74.43;;;11.90;99.90;;;;;;5032805;28;20428;-77
2020/12/20 18:26:25;;;;;;;150.27;86.60;;;11.90;99.90;;;;;;5009481;28;20049;-80
2020/12/20 18:40:01;;;;;;;167.38;101.88;;;12.00;99.90;;;;;;5009594;28;20512;-79
2020/12/20 18:42:27;;;;;;;146.30;84.07;;;11.90;99.90;;;;;;5008500;28;20041;-80
2020/12/20 18:45:02;;;;;;;139.32;81.07;;;12.00;99.90;;;;;;5008424;28;20399;-82
2020/12/20 18:47:28;;;;;;;142.85;81.75;;;11.90;99.90;;;;;;5028488;28;20044;-82
2020/12/20 18:49:53;;;;;;;132.90;77.35;;;12.00;99.90;;;;;;5030298;28;20029;-83
2020/12/20 18:52:28;;;;;;;129.00;77.63;;;12.00;99.90;;;;;;5029793;28;20058;-81
2020/12/20 18:55:19;;;;;;;127.00;76.30;;;12.00;99.90;;;;;;5029428;28;20037;-77
2020/12/20 19:01:00;;;;;;;130.85;77.00;;;12.10;99.90;;;;;;4989332;28;20531;-83
2020/12/20 19:03:29;;;;;;;133.52;78.93;;;12.10;99.90;;;;;;5007455;28;20068;-81
2020/12/20 19:06:00;;;;;;;123.78;74.60;;;12.00;99.90;;;;;;5024653;28;20041;-81
2020/12/20 19:08:26;;;;;;;132.70;79.87;;;12.10;99.90;;;;;;5030904;28;20021;-83
2020/12/20 19:10:52;;;;;;;127.30;75.60;;;12.10;99.90;;;;;;5031385;28;20033;-81
2020/12/20 19:13:17;;;;;;;124.30;73.45;;;12.10;99.90;;;;;;5013481;28;20025;-83
2020/12/20 19:23:15;;;;;;;115.88;71.18;;;12.10;99.90;;;;;;5007753;28;20032;-81
2020/12/20 19:25:56;;;;;;;125.70;75.78;;;12.10;99.90;;;;;;5008328;28;20038;-75
2020/12/20 20:17:46;;;;;;;179.10;96.28;;;12.10;99.90;;;;;;4838694;29;20114;-79
2020/12/20 20:21:02;;;;;;;175.07;97.47;;;12.10;99.90;;;;;;4865937;29;20039;-76
2020/12/20 20:24:23;;;;;;;173.93;97.68;;;12.10;99.90;;;;;;4927533;29;20040;-77
2020/12/20 20:27:39;;;;;;;176.93;98.18;;;12.00;99.90;;;;;;4853379;29;20077;-80
2020/12/20 20:59:19;;;;;;;;;;;;;;;;;;;;;
2020/12/20 21:05:58;;;;;;;145.57;84.07;;;11.90;99.90;;;;;;4800908;29;20053;-77
2020/12/20 21:16:18;;;;;;;;;;;;;;;;;;;;;
2020/12/20 21:33:04;;;;;;;;;;;;;;;;;;;;;
2020/12/20 21:47:26;;;;;;;166.15;91.97;;;11.70;99.90;;;;;;4836592;29;20125;-79
2020/12/20 21:49:51;;;;;;;158.27;89.60;;;11.70;99.90;;;;;;4882369;28;20546;-81
2020/12/20 21:52:17;;;;;;;155.75;88.40;;;11.70;99.90;;;;;;4966184;28;20034;-79
2020/12/20 21:54:43;;;;;;;158.88;90.65;;;11.70;99.90;;;;;;4967421;28;20150;-80
2020/12/20 21:57:09;;;;;;;159.32;90.57;;;11.70;99.90;;;;;;4959387;28;20383;-79
2020/12/20 21:59:34;;;;;;;158.38;90.38;;;11.70;99.90;;;;;;4951785;28;20078;-82
2020/12/20 22:02:00;;;;;;;170.73;92.97;;;11.80;99.90;;;;;;4970316;28;20020;-78
2020/12/20 22:04:26;;;;;;;167.95;91.47;;;11.70;99.90;;;;;;4947989;29;20110;-82
2020/12/20 22:06:51;;;;;;;161.27;90.28;;;11.80;99.90;;;;;;4948685;28;20460;-83
2020/12/20 22:09:17;;;;;;;169.23;95.80;;;11.70;99.90;;;;;;4948454;29;20873;-79
2020/12/20 22:12:07;;;;;;;170.65;96.75;;;11.70;99.90;;;;;;4948948;29;20136;-79
2020/12/20 22:14:36;;;;;;;157.93;90.90;;;11.70;99.90;;;;;;4949417;28;20027;-78
2020/12/20 22:17:42;;;;;;;171.85;93.82;;;11.70;99.90;;;;;;4950857;28;20038;-78
2020/12/20 22:27:25;;;;;;;167.43;94.57;;;11.80;99.90;;;;;;4841321;29;20076;-78
2020/12/20 22:29:53;;;;;;;158.27;86.55;;;11.80;99.90;;;;;;4878762;29;20033;-77
2020/12/20 22:32:48;;;;;;;165.27;87.03;;;11.80;99.90;;;;;;4878900;29;20485;-78
2020/12/20 22:35:35;;;;;;;149.43;86.65;;;11.70;99.90;;;;;;4876390;29;20132;-79
2020/12/20 22:38:07;;;;;;;155.73;84.78;;;11.60;99.90;;;;;;4876754;29;20575;-76
2020/12/20 22:40:48;;;;;;;151.95;87.70;;;11.60;99.90;;;;;;4897413;28;20035;-79
2020/12/20 22:43:38;;;;;;;166.70;88.75;;;11.60;99.90;;;;;;4968270;28;20037;-79
2020/12/20 22:46:16;;;;;;;160.50;87.57;;;11.70;99.90;;;;;;4952270;28;20031;-78
2020/12/20 22:53:07;;;;;;;154.63;87.30;;;11.60;99.90;;;;;;4938942;29;20038;-78
2020/12/20 22:56:28;;;;;;;158.65;87.95;;;11.70;99.90;;;;;;4941752;28;20483;-79
2020/12/20 22:59:16;;;;;;;157.75;87.30;;;11.70;99.90;;;;;;4914108;29;20044;-78
2020/12/20 23:02:12;;;;;;;156.02;90.13;;;11.70;99.90;;;;;;4914238;29;20032;-79
2020/12/20 23:04:44;;;;;;;143.80;84.22;;;11.70;99.90;;;;;;4946078;29;20184;-79
2020/12/20 23:07:55;;;;;;;147.40;85.38;;;11.70;99.90;;;;;;4952128;28;20475;-80
2020/12/20 23:18:13;;;;;;;137.68;81.35;;;11.60;99.90;;;;;;4939514;28;20113;-77
2020/12/20 23:27:20;;;;;;;142.55;83.75;;;11.60;99.90;;;;;;5010010;28;20060;-80
2020/12/20 23:30:45;;;;;;;;;;;;;;;;;;;;;
2020/12/20 23:34:02;;;;;;;144.10;81.90;;;11.60;99.90;;;;;;4943016;28;20369;-78
2020/12/20 23:37:01;;;;;;;144.02;84.53;;;11.60;99.90;;;;;;4857402;29;20045;-79
2020/12/20 23:47:41;;;;;;;136.05;79.53;;;11.60;99.90;;;;;;4768188;30;20548;-80
2020/12/20 23:58:08;;;;;;;142.93;81.00;;;11.60;99.90;;;;;;4660937;30;20590;-79
